sensor_id;sensor_type;location;lat;lon;timestamp;temperature;humidity
40638;DHT22;26336;44.696;10.622;2023-04-03T00:02:58;11.60;99.40
40638;DHT22;26336;44.696;10.622;2023-04-03T00:06:02;11.30;99.90
40638;DHT22;26336;44.696;10.622;2023-04-03T00:09:06;11.40;99.90
40638;DHT22;26336;44.696;10.622;2023-04-03T00:12:10;11.40;99.90
40638;DHT22;26336;44.696;10.622;2023-04-03T00:15:14;11.50;99.90
40638;DHT22;26336;44.696;10.622;2023-04-03T00:18:18;11.40;99.90
40638;DHT22;26336;44.696;10.622;2023-04-03T00:21:22;11.50;99.90
40638;DHT22;26336;44.696;10.622;2023-04-03T00:24:26;11.50;99.90
40638;DHT22;26336;44.696;10.622;2023-04-03T00:27:30;11.50;99.90
40638;DHT22;26336;44.696;10.622;2023-04-03T00:30:34;11.40;99.90
40638;DHT22;26336;44.696;10.622;2023-04-03T00:33:38;11.40;99.90
40638;DHT22;26336;44.696;10.622;2023-04-03T00:36:41;11.40;99.90
40638;DHT22;26336;44.696;10.622;2023-04-03T00:39:45;11.40;99.90
40638;DHT22;26336;44.696;10.622;2023-04-03T00:42:51;11.30;99.90
40638;DHT22;26336;44.696;10.622;2023-04-03T00:45:56;11.20;99.90
40638;DHT22;26336;44.696;10.622;2023-04-03T00:49:00;11.10;99.90
40638;DHT22;26336;44.696;10.622;2023-04-03T00:52:05;11.10;99.90
40638;DHT22;26336;44.696;10.622;2023-04-03T00:55:10;11.20;99.90
40638;DHT22;26336;44.696;10.622;2023-04-03T00:58:15;11.20;99.90
40638;DHT22;26336;44.696;10.622;2023-04-03T01:01:20;11.20;99.90
40638;DHT22;26336;44.696;10.622;2023-04-03T01:04:32;11.30;99.90
40638;DHT22;26336;44.696;10.622;2023-04-03T01:07:36;11.30;99.90
40638;DHT22;26336;44.696;10.622;2023-04-03T01:10:40;11.30;99.90
40638;DHT22;26336;44.696;10.622;2023-04-03T01:13:44;11.30;99.90
40638;DHT22;26336;44.696;10.622;2023-04-03T01:16:52;11.30;99.90
40638;DHT22;26336;44.696;10.622;2023-04-03T01:23:32;11.30;99.90
40638;DHT22;26336;44.696;10.622;2023-04-03T01:26:38;11.40;99.90
40638;DHT22;26336;44.696;10.622;2023-04-03T01:29:42;11.40;99.90
40638;DHT22;26336;44.696;10.622;2023-04-03T01:32:47;11.30;99.90
40638;DHT22;26336;44.696;10.622;2023-04-03T01:35:51;11.30;99.90
40638;DHT22;26336;44.696;10.622;2023-04-03T01:38:56;11.30;99.90
40638;DHT22;26336;44.696;10.622;2023-04-03T01:42:01;11.30;99.90
40638;DHT22;26336;44.696;10.622;2023-04-03T01:45:11;11.20;99.90
40638;DHT22;26336;44.696;10.622;2023-04-03T01:48:16;11.20;99.90
40638;DHT22;26336;44.696;10.622;2023-04-03T01:51:19;11.20;99.90
40638;DHT22;26336;44.696;10.622;2023-04-03T01:54:23;11.20;99.90
40638;DHT22;26336;44.696;10.622;2023-04-03T01:57:27;11.20;99.90
40638;DHT22;26336;44.696;10.622;2023-04-03T02:00:31;11.20;99.90
40638;DHT22;26336;44.696;10.622;2023-04-03T02:03:35;11.20;99.90
40638;DHT22;26336;44.696;10.622;2023-04-03T02:06:39;11.20;99.90
40638;DHT22;26336;44.696;10.622;2023-04-03T02:09:43;11.20;99.90
40638;DHT22;26336;44.696;10.622;2023-04-03T02:12:46;11.20;99.90
40638;DHT22;26336;44.696;10.622;2023-04-03T02:15:50;11.20;99.90
40638;DHT22;26336;44.696;10.622;2023-04-03T02:18:54;11.20;99.90
40638;DHT22;26336;44.696;10.622;2023-04-03T02:21:58;11.30;99.90
40638;DHT22;26336;44.696;10.622;2023-04-03T02:25:02;11.20;99.90
40638;DHT22;26336;44.696;10.622;2023-04-03T02:28:06;11.20;99.90
40638;DHT22;26336;44.696;10.622;2023-04-03T02:31:10;11.20;99.90
40638;DHT22;26336;44.696;10.622;2023-04-03T02:34:16;11.20;99.90
40638;DHT22;26336;44.696;10.622;2023-04-03T02:37:20;11.20;99.90
40638;DHT22;26336;44.696;10.622;2023-04-03T02:40:24;11.20;99.90
40638;DHT22;26336;44.696;10.622;2023-04-03T02:43:28;11.20;99.90
40638;DHT22;26336;44.696;10.622;2023-04-03T02:46:32;11.20;99.90
40638;DHT22;26336;44.696;10.622;2023-04-03T02:49:36;11.20;99.90
40638;DHT22;26336;44.696;10.622;2023-04-03T02:52:40;11.20;99.90
40638;DHT22;26336;44.696;10.622;2023-04-03T02:55:44;11.20;99.90
40638;DHT22;26336;44.696;10.622;2023-04-03T02:58:48;11.20;99.90
40638;DHT22;26336;44.696;10.622;2023-04-03T03:01:53;11.20;99.90
40638;DHT22;26336;44.696;10.622;2023-04-03T03:04:58;11.20;99.90
40638;DHT22;26336;44.696;10.622;2023-04-03T03:08:02;11.20;99.90
40638;DHT22;26336;44.696;10.622;2023-04-03T03:11:06;11.20;99.90
40638;DHT22;26336;44.696;10.622;2023-04-03T03:14:10;11.10;99.90
40638;DHT22;26336;44.696;10.622;2023-04-03T03:17:13;11.00;99.90
40638;DHT22;26336;44.696;10.622;2023-04-03T03:20:17;11.00;99.90
40638;DHT22;26336;44.696;10.622;2023-04-03T03:23:23;11.10;99.90
40638;DHT22;26336;44.696;10.622;2023-04-03T03:26:28;11.10;99.90
40638;DHT22;26336;44.696;10.622;2023-04-03T03:29:32;10.90;99.90
40638;DHT22;26336;44.696;10.622;2023-04-03T03:32:36;10.90;99.90
40638;DHT22;26336;44.696;10.622;2023-04-03T03:35:39;10.90;99.90
40638;DHT22;26336;44.696;10.622;2023-04-03T03:38:43;10.90;99.90
40638;DHT22;26336;44.696;10.622;2023-04-03T03:41:47;11.00;99.90
40638;DHT22;26336;44.696;10.622;2023-04-03T03:44:53;11.00;99.90
40638;DHT22;26336;44.696;10.622;2023-04-03T03:47:57;10.90;99.90
40638;DHT22;26336;44.696;10.622;2023-04-03T03:51:01;11.00;99.90
40638;DHT22;26336;44.696;10.622;2023-04-03T03:54:09;11.00;99.90
40638;DHT22;26336;44.696;10.622;2023-04-03T03:57:13;10.90;99.90
40638;DHT22;26336;44.696;10.622;2023-04-03T04:00:18;11.00;99.90
40638;DHT22;26336;44.696;10.622;2023-04-03T04:03:29;11.00;99.90
40638;DHT22;26336;44.696;10.622;2023-04-03T04:06:33;10.90;99.90
40638;DHT22;26336;44.696;10.622;2023-04-03T04:09:40;10.90;99.90
40638;DHT22;26336;44.696;10.622;2023-04-03T04:12:46;10.90;99.90
40638;DHT22;26336;44.696;10.622;2023-04-03T04:15:50;10.90;99.90
40638;DHT22;26336;44.696;10.622;2023-04-03T04:18:55;10.90;99.90
40638;DHT22;26336;44.696;10.622;2023-04-03T04:22:00;10.90;99.90
40638;DHT22;26336;44.696;10.622;2023-04-03T04:25:04;10.90;99.90
40638;DHT22;26336;44.696;10.622;2023-04-03T04:28:09;10.90;99.90
40638;DHT22;26336;44.696;10.622;2023-04-03T04:31:13;10.80;99.90
40638;DHT22;26336;44.696;10.622;2023-04-03T04:34:17;10.80;99.90
40638;DHT22;26336;44.696;10.622;2023-04-03T04:37:21;10.80;99.90
40638;DHT22;26336;44.696;10.622;2023-04-03T04:40:25;10.80;99.90
40638;DHT22;26336;44.696;10.622;2023-04-03T04:43:29;10.80;99.90
40638;DHT22;26336;44.696;10.622;2023-04-03T04:46:32;10.70;99.90
40638;DHT22;26336;44.696;10.622;2023-04-03T04:49:37;10.70;99.90
40638;DHT22;26336;44.696;10.622;2023-04-03T04:52:41;10.70;99.90
40638;DHT22;26336;44.696;10.622;2023-04-03T04:55:45;10.70;99.90
40638;DHT22;26336;44.696;10.622;2023-04-03T04:58:49;10.70;99.90
40638;DHT22;26336;44.696;10.622;2023-04-03T05:01:55;10.60;99.90
40638;DHT22;26336;44.696;10.622;2023-04-03T05:04:59;10.70;99.90
40638;DHT22;26336;44.696;10.622;2023-04-03T05:08:05;10.70;99.90
40638;DHT22;26336;44.696;10.622;2023-04-03T05:11:12;10.70;99.90
40638;DHT22;26336;44.696;10.622;2023-04-03T05:14:17;10.70;99.90
40638;DHT22;26336;44.696;10.622;2023-04-03T05:17:21;10.70;99.90
40638;DHT22;26336;44.696;10.622;2023-04-03T05:20:30;10.70;99.90
40638;DHT22;26336;44.696;10.622;2023-04-03T05:23:34;10.70;99.90
40638;DHT22;26336;44.696;10.622;2023-04-03T05:26:40;10.70;99.90
40638;DHT22;26336;44.696;10.622;2023-04-03T05:29:44;10.70;99.90
40638;DHT22;26336;44.696;10.622;2023-04-03T05:32:51;10.70;99.90
40638;DHT22;26336;44.696;10.622;2023-04-03T05:36:02;10.70;99.90
40638;DHT22;26336;44.696;10.622;2023-04-03T05:39:06;10.60;99.90
40638;DHT22;26336;44.696;10.622;2023-04-03T05:42:14;10.60;99.90
40638;DHT22;26336;44.696;10.622;2023-04-03T05:45:19;10.60;99.90
40638;DHT22;26336;44.696;10.622;2023-04-03T05:48:24;10.60;99.90
40638;DHT22;26336;44.696;10.622;2023-04-03T05:51:30;10.60;99.90
40638;DHT22;26336;44.696;10.622;2023-04-03T05:54:38;10.60;99.90
40638;DHT22;26336;44.696;10.622;2023-04-03T05:57:49;10.50;99.90
40638;DHT22;26336;44.696;10.622;2023-04-03T06:00:53;10.60;99.90
40638;DHT22;26336;44.696;10.622;2023-04-03T06:03:57;10.50;99.90
40638;DHT22;26336;44.696;10.622;2023-04-03T06:07:02;10.60;99.90
40638;DHT22;26336;44.696;10.622;2023-04-03T06:10:05;10.60;99.90
40638;DHT22;26336;44.696;10.622;2023-04-03T06:13:10;10.60;99.90
40638;DHT22;26336;44.696;10.622;2023-04-03T06:16:14;10.60;99.90
40638;DHT22;26336;44.696;10.622;2023-04-03T06:19:18;10.60;99.90
40638;DHT22;26336;44.696;10.622;2023-04-03T06:22:27;10.60;99.90
40638;DHT22;26336;44.696;10.622;2023-04-03T06:25:33;10.70;99.90
40638;DHT22;26336;44.696;10.622;2023-04-03T06:28:37;10.60;99.90
40638;DHT22;26336;44.696;10.622;2023-04-03T06:31:42;10.70;99.90
40638;DHT22;26336;44.696;10.622;2023-04-03T06:34:46;10.70;99.90
40638;DHT22;26336;44.696;10.622;2023-04-03T06:37:50;10.80;99.90
40638;DHT22;26336;44.696;10.622;2023-04-03T06:40:54;10.80;99.90
40638;DHT22;26336;44.696;10.622;2023-04-03T06:43:59;10.80;99.90
40638;DHT22;26336;44.696;10.622;2023-04-03T06:47:03;10.90;99.90
40638;DHT22;26336;44.696;10.622;2023-04-03T06:50:08;10.90;99.90
40638;DHT22;26336;44.696;10.622;2023-04-03T06:53:14;10.90;99.90
40638;DHT22;26336;44.696;10.622;2023-04-03T06:56:18;10.90;99.90
40638;DHT22;26336;44.696;10.622;2023-04-03T06:59:23;11.00;99.90
40638;DHT22;26336;44.696;10.622;2023-04-03T07:02:27;11.00;99.90
40638;DHT22;26336;44.696;10.622;2023-04-03T07:05:31;11.00;99.90
40638;DHT22;26336;44.696;10.622;2023-04-03T07:08:35;11.10;99.90
40638;DHT22;26336;44.696;10.622;2023-04-03T07:11:39;11.20;99.90
40638;DHT22;26336;44.696;10.622;2023-04-03T07:14:45;11.20;99.90
40638;DHT22;26336;44.696;10.622;2023-04-03T07:17:49;11.30;99.90
40638;DHT22;26336;44.696;10.622;2023-04-03T07:20:52;11.30;99.90
40638;DHT22;26336;44.696;10.622;2023-04-03T07:23:56;11.40;99.90
40638;DHT22;26336;44.696;10.622;2023-04-03T07:27:00;11.40;99.90
40638;DHT22;26336;44.696;10.622;2023-04-03T07:30:05;11.50;99.90
40638;DHT22;26336;44.696;10.622;2023-04-03T07:33:10;11.50;99.90
40638;DHT22;26336;44.696;10.622;2023-04-03T07:36:16;11.50;99.90
40638;DHT22;26336;44.696;10.622;2023-04-03T07:39:20;11.60;99.90
40638;DHT22;26336;44.696;10.622;2023-04-03T07:42:25;11.60;99.90
40638;DHT22;26336;44.696;10.622;2023-04-03T07:45:30;11.80;99.90
40638;DHT22;26336;44.696;10.622;2023-04-03T07:48:34;11.90;99.90
40638;DHT22;26336;44.696;10.622;2023-04-03T07:51:39;11.90;99.90
40638;DHT22;26336;44.696;10.622;2023-04-03T07:54:44;12.00;99.90
40638;DHT22;26336;44.696;10.622;2023-04-03T07:57:48;12.00;99.90
40638;DHT22;26336;44.696;10.622;2023-04-03T08:00:52;12.00;99.90
40638;DHT22;26336;44.696;10.622;2023-04-03T08:03:56;12.10;99.90
40638;DHT22;26336;44.696;10.622;2023-04-03T08:06:59;12.20;99.90
40638;DHT22;26336;44.696;10.622;2023-04-03T08:10:04;12.30;99.90
40638;DHT22;26336;44.696;10.622;2023-04-03T08:13:08;12.50;99.90
40638;DHT22;26336;44.696;10.622;2023-04-03T08:16:13;12.50;99.90
40638;DHT22;26336;44.696;10.622;2023-04-03T08:19:19;12.60;99.90
40638;DHT22;26336;44.696;10.622;2023-04-03T08:22:23;12.70;99.90
40638;DHT22;26336;44.696;10.622;2023-04-03T08:25:27;12.80;99.90
40638;DHT22;26336;44.696;10.622;2023-04-03T08:28:33;12.90;99.90
40638;DHT22;26336;44.696;10.622;2023-04-03T08:31:37;12.90;99.90
40638;DHT22;26336;44.696;10.622;2023-04-03T08:34:41;13.00;99.90
40638;DHT22;26336;44.696;10.622;2023-04-03T08:37:45;13.00;99.90
40638;DHT22;26336;44.696;10.622;2023-04-03T08:41:04;13.10;99.90
40638;DHT22;26336;44.696;10.622;2023-04-03T08:44:14;13.20;99.90
40638;DHT22;26336;44.696;10.622;2023-04-03T08:50:26;13.40;99.90
40638;DHT22;26336;44.696;10.622;2023-04-03T08:53:33;13.40;99.90
40638;DHT22;26336;44.696;10.622;2023-04-03T08:56:38;13.50;99.90
40638;DHT22;26336;44.696;10.622;2023-04-03T08:59:42;13.50;99.90
40638;DHT22;26336;44.696;10.622;2023-04-03T09:02:46;13.70;99.90
40638;DHT22;26336;44.696;10.622;2023-04-03T09:06:01;13.70;99.90
40638;DHT22;26336;44.696;10.622;2023-04-03T09:12:34;13.80;99.90
40638;DHT22;26336;44.696;10.622;2023-04-03T09:15:41;13.80;99.90
40638;DHT22;26336;44.696;10.622;2023-04-03T09:18:45;13.90;99.90
40638;DHT22;26336;44.696;10.622;2023-04-03T09:21:51;14.10;99.90
40638;DHT22;26336;44.696;10.622;2023-04-03T09:25:08;14.20;99.90
40638;DHT22;26336;44.696;10.622;2023-04-03T09:28:14;14.40;99.90
40638;DHT22;26336;44.696;10.622;2023-04-03T09:31:25;14.40;99.90
40638;DHT22;26336;44.696;10.622;2023-04-03T09:34:34;14.50;99.90
40638;DHT22;26336;44.696;10.622;2023-04-03T09:37:43;14.60;99.90
40638;DHT22;26336;44.696;10.622;2023-04-03T09:40:48;14.50;99.90
40638;DHT22;26336;44.696;10.622;2023-04-03T09:43:53;14.30;99.90
40638;DHT22;26336;44.696;10.622;2023-04-03T09:46:57;14.40;99.90
40638;DHT22;26336;44.696;10.622;2023-04-03T09:53:25;14.60;99.90
40638;DHT22;26336;44.696;10.622;2023-04-03T09:56:30;14.70;99.90
40638;DHT22;26336;44.696;10.622;2023-04-03T09:59:33;14.80;99.90
40638;DHT22;26336;44.696;10.622;2023-04-03T10:02:38;14.80;99.90
40638;DHT22;26336;44.696;10.622;2023-04-03T10:05:42;14.90;99.90
40638;DHT22;26336;44.696;10.622;2023-04-03T10:08:51;14.90;99.90
40638;DHT22;26336;44.696;10.622;2023-04-03T10:12:11;15.00;99.90
40638;DHT22;26336;44.696;10.622;2023-04-03T10:15:17;15.00;99.90
40638;DHT22;26336;44.696;10.622;2023-04-03T10:24:54;14.40;99.90
40638;DHT22;26336;44.696;10.622;2023-04-03T10:28:01;14.40;99.90
40638;DHT22;26336;44.696;10.622;2023-04-03T10:31:21;14.60;99.90
40638;DHT22;26336;44.696;10.622;2023-04-03T10:34:35;14.60;99.90
40638;DHT22;26336;44.696;10.622;2023-04-03T10:54:13;14.90;99.00
40638;DHT22;26336;44.696;10.622;2023-04-03T10:57:21;15.00;99.40
40638;DHT22;26336;44.696;10.622;2023-04-03T11:00:30;14.90;99.90
40638;DHT22;26336;44.696;10.622;2023-04-03T11:03:38;14.80;99.90
40638;DHT22;26336;44.696;10.622;2023-04-03T11:06:49;14.70;99.90
40638;DHT22;26336;44.696;10.622;2023-04-03T11:10:02;14.50;99.90
40638;DHT22;26336;44.696;10.622;2023-04-03T11:16:21;14.70;99.30
40638;DHT22;26336;44.696;10.622;2023-04-03T11:22:39;15.10;97.20
40638;DHT22;26336;44.696;10.622;2023-04-03T11:25:45;15.10;97.30
40638;DHT22;26336;44.696;10.622;2023-04-03T11:28:53;15.30;97.60
40638;DHT22;26336;44.696;10.622;2023-04-03T11:35:04;15.40;96.10
40638;DHT22;26336;44.696;10.622;2023-04-03T11:38:10;15.60;95.90
40638;DHT22;26336;44.696;10.622;2023-04-03T11:41:18;15.70;95.40
40638;DHT22;26336;44.696;10.622;2023-04-03T11:44:30;15.90;95.40
40638;DHT22;26336;44.696;10.622;2023-04-03T11:51:00;16.10;95.60
40638;DHT22;26336;44.696;10.622;2023-04-03T12:04:06;15.50;94.70
40638;DHT22;26336;44.696;10.622;2023-04-03T12:07:15;15.30;94.40
40638;DHT22;26336;44.696;10.622;2023-04-03T12:10:20;15.20;94.30
40638;DHT22;26336;44.696;10.622;2023-04-03T12:13:24;15.30;96.30
40638;DHT22;26336;44.696;10.622;2023-04-03T12:16:32;15.40;98.10
40638;DHT22;26336;44.696;10.622;2023-04-03T12:19:38;15.20;99.00
40638;DHT22;26336;44.696;10.622;2023-04-03T12:26:19;15.10;98.70
40638;DHT22;26336;44.696;10.622;2023-04-03T12:29:27;15.20;98.40
40638;DHT22;26336;44.696;10.622;2023-04-03T12:35:57;15.40;98.00
40638;DHT22;26336;44.696;10.622;2023-04-03T12:39:13;15.40;97.70
40638;DHT22;26336;44.696;10.622;2023-04-03T12:45:40;15.60;97.10
40638;DHT22;26336;44.696;10.622;2023-04-03T12:51:49;15.40;97.40
40638;DHT22;26336;44.696;10.622;2023-04-03T12:54:53;15.50;97.10
40638;DHT22;26336;44.696;10.622;2023-04-03T12:58:13;15.50;96.90
40638;DHT22;26336;44.696;10.622;2023-04-03T13:01:17;15.60;96.80
40638;DHT22;26336;44.696;10.622;2023-04-03T13:04:22;15.60;96.60
40638;DHT22;26336;44.696;10.622;2023-04-03T13:07:28;15.60;96.00
40638;DHT22;26336;44.696;10.622;2023-04-03T13:10:41;15.60;95.60
40638;DHT22;26336;44.696;10.622;2023-04-03T13:17:10;15.50;95.60
40638;DHT22;26336;44.696;10.622;2023-04-03T13:20:24;15.50;95.00
40638;DHT22;26336;44.696;10.622;2023-04-03T13:23:28;15.40;94.90
40638;DHT22;26336;44.696;10.622;2023-04-03T13:26:31;15.50;94.40
40638;DHT22;26336;44.696;10.622;2023-04-03T13:29:36;15.30;94.20
40638;DHT22;26336;44.696;10.622;2023-04-03T13:32:40;15.20;94.40
40638;DHT22;26336;44.696;10.622;2023-04-03T13:35:46;15.10;94.90
40638;DHT22;26336;44.696;10.622;2023-04-03T13:39:04;15.20;94.40
40638;DHT22;26336;44.696;10.622;2023-04-03T13:42:28;15.30;94.50
40638;DHT22;26336;44.696;10.622;2023-04-03T13:45:33;15.30;94.30
40638;DHT22;26336;44.696;10.622;2023-04-03T13:48:40;15.40;94.20
40638;DHT22;26336;44.696;10.622;2023-04-03T13:51:45;15.30;93.60
40638;DHT22;26336;44.696;10.622;2023-04-03T13:54:51;15.30;94.40
40638;DHT22;26336;44.696;10.622;2023-04-03T14:01:05;15.20;93.90
40638;DHT22;26336;44.696;10.622;2023-04-03T14:04:21;15.10;94.10
40638;DHT22;26336;44.696;10.622;2023-04-03T14:07:26;15.20;94.10
40638;DHT22;26336;44.696;10.622;2023-04-03T14:10:30;15.20;93.80
40638;DHT22;26336;44.696;10.622;2023-04-03T14:13:34;15.10;93.20
40638;DHT22;26336;44.696;10.622;2023-04-03T14:16:39;15.00;92.40
40638;DHT22;26336;44.696;10.622;2023-04-03T14:19:44;15.00;91.70
40638;DHT22;26336;44.696;10.622;2023-04-03T14:22:48;15.00;91.40
40638;DHT22;26336;44.696;10.622;2023-04-03T14:25:52;15.00;90.40
40638;DHT22;26336;44.696;10.622;2023-04-03T14:28:56;15.10;88.30
40638;DHT22;26336;44.696;10.622;2023-04-03T14:32:00;15.10;83.20
40638;DHT22;26336;44.696;10.622;2023-04-03T14:35:04;15.10;80.90
40638;DHT22;26336;44.696;10.622;2023-04-03T14:38:12;15.10;80.40
40638;DHT22;26336;44.696;10.622;2023-04-03T14:41:22;15.10;81.30
40638;DHT22;26336;44.696;10.622;2023-04-03T14:44:29;15.20;80.00
40638;DHT22;26336;44.696;10.622;2023-04-03T14:47:34;15.20;78.40
40638;DHT22;26336;44.696;10.622;2023-04-03T14:50:40;15.10;76.80
40638;DHT22;26336;44.696;10.622;2023-04-03T14:53:44;15.10;77.10
40638;DHT22;26336;44.696;10.622;2023-04-03T14:56:48;15.10;74.90
40638;DHT22;26336;44.696;10.622;2023-04-03T14:59:52;15.10;74.60
40638;DHT22;26336;44.696;10.622;2023-04-03T15:02:56;15.10;75.40
40638;DHT22;26336;44.696;10.622;2023-04-03T15:05:59;15.10;75.80
40638;DHT22;26336;44.696;10.622;2023-04-03T15:09:04;15.10;75.30
40638;DHT22;26336;44.696;10.622;2023-04-03T15:12:08;15.10;76.10
40638;DHT22;26336;44.696;10.622;2023-04-03T15:15:13;15.10;77.50
40638;DHT22;26336;44.696;10.622;2023-04-03T15:18:21;15.10;77.70
40638;DHT22;26336;44.696;10.622;2023-04-03T15:21:25;15.10;77.20
40638;DHT22;26336;44.696;10.622;2023-04-03T15:24:29;15.00;78.60
40638;DHT22;26336;44.696;10.622;2023-04-03T15:27:34;15.10;79.50
40638;DHT22;26336;44.696;10.622;2023-04-03T15:30:38;15.10;79.00
40638;DHT22;26336;44.696;10.622;2023-04-03T15:33:43;15.10;79.80
40638;DHT22;26336;44.696;10.622;2023-04-03T15:36:47;15.10;78.70
40638;DHT22;26336;44.696;10.622;2023-04-03T15:39:50;15.00;78.20
40638;DHT22;26336;44.696;10.622;2023-04-03T15:42:54;14.90;78.50
40638;DHT22;26336;44.696;10.622;2023-04-03T15:45:58;14.90;78.30
40638;DHT22;26336;44.696;10.622;2023-04-03T15:49:02;14.90;77.00
40638;DHT22;26336;44.696;10.622;2023-04-03T15:52:07;14.80;76.50
40638;DHT22;26336;44.696;10.622;2023-04-03T15:55:14;14.80;75.70
40638;DHT22;26336;44.696;10.622;2023-04-03T15:58:18;14.80;76.60
40638;DHT22;26336;44.696;10.622;2023-04-03T16:01:22;14.90;77.50
40638;DHT22;26336;44.696;10.622;2023-04-03T16:04:25;14.80;78.00
40638;DHT22;26336;44.696;10.622;2023-04-03T16:07:29;14.90;79.00
40638;DHT22;26336;44.696;10.622;2023-04-03T16:10:37;14.80;79.20
40638;DHT22;26336;44.696;10.622;2023-04-03T16:13:41;14.80;79.30
40638;DHT22;26336;44.696;10.622;2023-04-03T16:16:45;14.70;79.90
40638;DHT22;26336;44.696;10.622;2023-04-03T16:19:49;14.70;80.20
40638;DHT22;26336;44.696;10.622;2023-04-03T16:22:56;14.60;80.30
40638;DHT22;26336;44.696;10.622;2023-04-03T16:26:00;14.50;79.80
40638;DHT22;26336;44.696;10.622;2023-04-03T16:29:04;14.50;79.40
40638;DHT22;26336;44.696;10.622;2023-04-03T16:32:08;14.40;78.10
40638;DHT22;26336;44.696;10.622;2023-04-03T16:35:12;14.30;78.60
40638;DHT22;26336;44.696;10.622;2023-04-03T16:38:16;14.20;74.80
40638;DHT22;26336;44.696;10.622;2023-04-03T16:41:21;14.20;74.70
40638;DHT22;26336;44.696;10.622;2023-04-03T16:44:25;14.10;73.70
40638;DHT22;26336;44.696;10.622;2023-04-03T16:47:30;14.10;73.90
40638;DHT22;26336;44.696;10.622;2023-04-03T16:50:37;14.10;75.00
40638;DHT22;26336;44.696;10.622;2023-04-03T16:53:42;14.00;75.00
40638;DHT22;26336;44.696;10.622;2023-04-03T16:56:46;14.00;75.70
40638;DHT22;26336;44.696;10.622;2023-04-03T16:59:50;14.00;75.40
40638;DHT22;26336;44.696;10.622;2023-04-03T17:02:54;13.90;76.50
40638;DHT22;26336;44.696;10.622;2023-04-03T17:05:58;13.90;75.70
40638;DHT22;26336;44.696;10.622;2023-04-03T17:09:02;13.80;75.30
40638;DHT22;26336;44.696;10.622;2023-04-03T17:12:06;13.80;75.60
40638;DHT22;26336;44.696;10.622;2023-04-03T17:15:10;13.80;76.50
40638;DHT22;26336;44.696;10.622;2023-04-03T17:18:14;13.80;75.60
40638;DHT22;26336;44.696;10.622;2023-04-03T17:21:18;13.80;76.00
40638;DHT22;26336;44.696;10.622;2023-04-03T17:24:25;13.80;75.00
40638;DHT22;26336;44.696;10.622;2023-04-03T17:27:30;13.80;75.30
40638;DHT22;26336;44.696;10.622;2023-04-03T17:30:34;13.70;75.20
40638;DHT22;26336;44.696;10.622;2023-04-03T17:33:38;13.60;75.50
40638;DHT22;26336;44.696;10.622;2023-04-03T17:36:42;13.60;75.80
40638;DHT22;26336;44.696;10.622;2023-04-03T17:39:47;13.50;76.00
40638;DHT22;26336;44.696;10.622;2023-04-03T17:42:51;13.40;76.00
40638;DHT22;26336;44.696;10.622;2023-04-03T17:45:59;13.40;75.70
40638;DHT22;26336;44.696;10.622;2023-04-03T17:49:06;13.30;76.10
40638;DHT22;26336;44.696;10.622;2023-04-03T17:52:09;13.30;76.70
40638;DHT22;26336;44.696;10.622;2023-04-03T17:55:13;13.30;76.90
40638;DHT22;26336;44.696;10.622;2023-04-03T17:58:19;13.20;76.30
40638;DHT22;26336;44.696;10.622;2023-04-03T18:01:25;13.10;76.70
40638;DHT22;26336;44.696;10.622;2023-04-03T18:04:28;13.10;76.50
40638;DHT22;26336;44.696;10.622;2023-04-03T18:07:37;13.00;76.80
40638;DHT22;26336;44.696;10.622;2023-04-03T18:10:41;12.90;76.40
40638;DHT22;26336;44.696;10.622;2023-04-03T18:13:45;13.00;77.00
40638;DHT22;26336;44.696;10.622;2023-04-03T18:16:55;13.00;77.40
40638;DHT22;26336;44.696;10.622;2023-04-03T18:20:02;13.00;77.20
40638;DHT22;26336;44.696;10.622;2023-04-03T18:23:06;13.00;76.50
40638;DHT22;26336;44.696;10.622;2023-04-03T18:26:10;12.90;76.70
40638;DHT22;26336;44.696;10.622;2023-04-03T18:29:14;13.00;76.60
40638;DHT22;26336;44.696;10.622;2023-04-03T18:32:19;12.90;77.00
40638;DHT22;26336;44.696;10.622;2023-04-03T18:35:23;12.90;77.00
40638;DHT22;26336;44.696;10.622;2023-04-03T18:38:27;12.90;77.10
40638;DHT22;26336;44.696;10.622;2023-04-03T18:41:31;12.90;77.10
40638;DHT22;26336;44.696;10.622;2023-04-03T18:44:36;12.80;77.20
40638;DHT22;26336;44.696;10.622;2023-04-03T18:47:40;12.80;77.10
40638;DHT22;26336;44.696;10.622;2023-04-03T18:50:44;12.80;77.40
40638;DHT22;26336;44.696;10.622;2023-04-03T18:53:48;12.80;77.70
40638;DHT22;26336;44.696;10.622;2023-04-03T18:56:52;12.70;77.90
40638;DHT22;26336;44.696;10.622;2023-04-03T18:59:56;12.60;78.40
40638;DHT22;26336;44.696;10.622;2023-04-03T19:02:59;12.50;78.80
40638;DHT22;26336;44.696;10.622;2023-04-03T19:06:03;12.50;79.40
40638;DHT22;26336;44.696;10.622;2023-04-03T19:09:08;12.40;79.50
40638;DHT22;26336;44.696;10.622;2023-04-03T19:12:12;12.40;80.10
40638;DHT22;26336;44.696;10.622;2023-04-03T19:15:17;12.40;80.70
40638;DHT22;26336;44.696;10.622;2023-04-03T19:18:21;12.40;81.60
40638;DHT22;26336;44.696;10.622;2023-04-03T19:21:25;12.40;81.10
40638;DHT22;26336;44.696;10.622;2023-04-03T19:24:30;12.50;81.30
40638;DHT22;26336;44.696;10.622;2023-04-03T19:27:34;12.60;81.50
40638;DHT22;26336;44.696;10.622;2023-04-03T19:30:38;12.50;81.70
40638;DHT22;26336;44.696;10.622;2023-04-03T19:33:42;12.40;81.60
40638;DHT22;26336;44.696;10.622;2023-04-03T19:36:46;12.30;82.10
40638;DHT22;26336;44.696;10.622;2023-04-03T19:39:52;12.20;82.40
40638;DHT22;26336;44.696;10.622;2023-04-03T19:42:56;12.10;83.00
40638;DHT22;26336;44.696;10.622;2023-04-03T19:46:00;12.00;83.50
40638;DHT22;26336;44.696;10.622;2023-04-03T19:49:03;12.00;83.80
40638;DHT22;26336;44.696;10.622;2023-04-03T19:52:07;11.80;84.10
40638;DHT22;26336;44.696;10.622;2023-04-03T19:55:12;11.80;84.50
40638;DHT22;26336;44.696;10.622;2023-04-03T19:58:16;11.70;85.00
40638;DHT22;26336;44.696;10.622;2023-04-03T20:01:20;11.70;85.70
40638;DHT22;26336;44.696;10.622;2023-04-03T20:04:24;11.60;85.90
40638;DHT22;26336;44.696;10.622;2023-04-03T20:07:28;11.70;86.20
40638;DHT22;26336;44.696;10.622;2023-04-03T20:10:33;11.70;86.70
40638;DHT22;26336;44.696;10.622;2023-04-03T20:13:42;11.60;87.20
40638;DHT22;26336;44.696;10.622;2023-04-03T20:16:46;11.50;87.60
40638;DHT22;26336;44.696;10.622;2023-04-03T20:19:50;11.50;88.30
40638;DHT22;26336;44.696;10.622;2023-04-03T20:22:53;11.50;88.30
40638;DHT22;26336;44.696;10.622;2023-04-03T20:25:59;11.50;88.80
40638;DHT22;26336;44.696;10.622;2023-04-03T20:29:03;11.40;89.20
40638;DHT22;26336;44.696;10.622;2023-04-03T20:32:07;11.30;89.80